Time;durP1;ratioP1;P1;durP2;ratioP2;P2;SDS_P1;SDS_P2;PMS_P1;PMS_P2;Temp;Humidity;BMP_temperature;BMP_pressure;BME280_temperature;BME280_humidity;BME280_pressure;Samples;Min_cycle;Max_cycle;Signal;HPM_P1;HPM_P2
2022/05/08 00:01:00;;;;;;;26.67;17.88;;;;;;;12.06;63.90;99047.03;5048546;28;20728;-78
2022/05/08 00:03:25;;;;;;;27.15;17.85;;;;;;;12.04;64.11;99052.00;5046612;28;20478;-79
2022/05/08 00:05:51;;;;;;;30.60;18.88;;;;;;;12.01;64.49;99047.13;5048052;28;20102;-79
2022/05/08 00:08:18;;;;;;;31.23;21.08;;;;;;;11.98;64.46;99042.16;5048378;28;20733;-78
2022/05/08 00:10:43;;;;;;;31.92;21.75;;;;;;;11.96;64.75;99039.69;5047306;28;20017;-78
2022/05/08 00:13:12;;;;;;;32.70;20.90;;;;;;;11.94;65.01;99041.09;5050795;28;20039;-78
2022/05/08 00:15:38;;;;;;;32.20;20.77;;;;;;;11.91;64.62;99040.56;5049885;28;20047;-78
2022/05/08 00:18:04;;;;;;;28.17;20.13;;;;;;;11.86;64.81;99048.03;5046611;28;20031;-79
2022/05/08 00:20:30;;;;;;;31.80;20.15;;;;;;;11.79;64.71;99040.16;5048864;28;20444;-79
2022/05/08 00:22:56;;;;;;;31.15;19.70;;;;;;;11.75;64.89;99033.59;5048736;28;21404;-78
2022/05/08 00:25:22;;;;;;;26.67;18.77;;;;;;;11.70;64.58;99034.47;5045531;28;20017;-78
2022/05/08 00:27:47;;;;;;;28.85;18.75;;;;;;;11.64;64.93;99037.53;5046996;28;20024;-78
2022/05/08 00:30:13;;;;;;;27.08;18.90;;;;;;;11.59;64.69;99031.00;5048079;28;20096;-78
2022/05/08 00:32:39;;;;;;;25.20;17.75;;;;;;;11.54;65.18;99032.97;5047410;28;20047;-77
2022/05/08 00:35:05;;;;;;;24.17;17.42;;;;;;;11.48;65.15;99029.44;5047948;28;20099;-78
2022/05/08 00:37:31;;;;;;;24.17;17.55;;;;;;;11.41;65.22;99023.47;5047665;28;20029;-78
2022/05/08 00:39:56;;;;;;;26.42;17.02;;;;;;;11.36;65.49;99032.56;5048286;28;20017;-78
2022/05/08 00:42:22;;;;;;;23.20;16.73;;;;;;;11.31;65.33;99029.88;5031032;28;20155;-79
2022/05/08 00:44:48;;;;;;;27.40;17.88;;;;;;;11.25;65.03;99031.00;5045954;28;20020;-78
2022/05/08 00:47:14;;;;;;;24.02;16.77;;;;;;;11.20;65.80;99028.28;5047591;28;20111;-79
2022/05/08 00:49:39;;;;;;;24.20;16.75;;;;;;;11.15;65.76;99026.44;5045667;28;20512;-78
2022/05/08 00:52:07;;;;;;;25.55;17.70;;;;;;;11.08;65.18;99021.25;5048099;28;20052;-78
2022/05/08 00:54:33;;;;;;;25.95;17.42;;;;;;;11.02;65.48;99025.97;5047946;28;20473;-77
2022/05/08 00:56:59;;;;;;;24.35;16.90;;;;;;;10.97;65.13;99023.25;5047427;28;20568;-79
2022/05/08 00:59:25;;;;;;;25.13;17.30;;;;;;;10.93;65.88;99013.94;5046206;28;20116;-74
2022/05/08 01:01:51;;;;;;;24.15;16.40;;;;;;;10.88;65.45;99019.44;5049727;28;20039;-74
2022/05/08 01:04:16;;;;;;;23.73;16.25;;;;;;;10.82;66.26;99015.09;5049098;28;20518;-73
2022/05/08 01:06:43;;;;;;;25.88;17.40;;;;;;;10.77;65.92;99024.19;5047538;28;20021;-72
2022/05/08 01:09:08;;;;;;;24.85;17.08;;;;;;;10.71;65.25;99023.41;5049403;28;20021;-74
2022/05/08 01:11:34;;;;;;;26.00;18.05;;;;;;;10.67;65.84;99022.34;5052449;28;20033;-74
2022/05/08 01:13:59;;;;;;;27.60;17.92;;;;;;;10.62;65.67;99027.84;5052486;28;20032;-74
2022/05/08 01:16:25;;;;;;;23.50;17.42;;;;;;;10.60;65.76;99015.53;5051392;28;20108;-74
2022/05/08 01:18:50;;;;;;;25.15;17.83;;;;;;;10.53;65.65;99016.66;5052134;28;20037;-74
2022/05/08 01:21:18;;;;;;;24.50;17.83;;;;;;;10.51;65.46;99018.03;5051448;28;20029;-73
2022/05/08 01:23:45;;;;;;;25.75;18.00;;;;;;;10.47;65.74;99022.44;5049401;28;20017;-74
2022/05/08 01:26:11;;;;;;;23.73;17.67;;;;;;;10.43;65.57;99025.72;5053794;28;20394;-74
2022/05/08 01:28:36;;;;;;;29.38;17.73;;;;;;;10.41;66.42;99019.72;5050701;28;20021;-73
2022/05/08 01:31:02;;;;;;;25.77;17.88;;;;;;;10.37;65.95;99024.09;5051854;28;20454;-73
2022/05/08 01:33:27;;;;;;;26.00;18.23;;;;;;;10.35;66.26;99028.22;5051508;28;20722;-74
2022/05/08 01:35:53;;;;;;;28.42;20.00;;;;;;;10.33;66.37;99023.03;5052741;28;20029;-74
2022/05/08 01:38:21;;;;;;;29.20;20.10;;;;;;;10.35;66.36;99023.56;5052020;28;20039;-74
2022/05/08 01:40:48;;;;;;;32.03;21.40;;;;;;;10.35;66.67;99030.97;5051780;28;20021;-76
2022/05/08 01:43:14;;;;;;;31.23;21.83;;;;;;;10.34;66.36;99024.66;5051277;28;20111;-75
2022/05/08 01:45:40;;;;;;;31.38;21.42;;;;;;;10.31;66.89;99036.19;5051218;28;20051;-76
2022/05/08 01:48:22;;;;;;;32.25;21.67;;;;;;;10.28;67.06;99025.78;5051320;28;20462;-76
2022/05/08 01:50:51;;;;;;;31.73;22.23;;;;;;;10.28;67.01;99036.75;5049795;28;20087;-76
2022/05/08 01:53:21;;;;;;;38.55;25.80;;;;;;;10.24;66.75;99025.50;5050051;28;20497;-76
2022/05/08 01:55:49;;;;;;;46.03;27.77;;;;;;;10.24;67.29;99033.72;5049269;28;20068;-76
2022/05/08 01:58:17;;;;;;;45.90;29.42;;;;;;;10.23;66.93;99031.28;5050114;28;20024;-75
2022/05/08 02:00:42;;;;;;;49.95;30.73;;;;;;;10.20;67.00;99029.91;5050252;28;20013;-76
2022/05/08 02:03:08;;;;;;;52.78;31.15;;;;;;;10.18;67.33;99026.66;5050101;28;20035;-75
2022/05/08 02:05:33;;;;;;;48.38;30.70;;;;;;;10.15;67.68;99027.22;5050289;28;20474;-75
2022/05/08 02:08:01;;;;;;;51.10;30.35;;;;;;;10.16;67.65;99030.75;5049056;28;20017;-75
2022/05/08 02:10:27;;;;;;;47.08;29.52;;;;;;;10.13;67.04;99034.88;5049869;28;20017;-76
2022/05/08 02:12:52;;;;;;;45.78;28.65;;;;;;;10.11;67.07;99031.59;5049387;28;20094;-76
2022/05/08 02:15:18;;;;;;;41.35;26.15;;;;;;;10.10;67.70;99029.97;5049225;28;20414;-75
2022/05/08 02:17:43;;;;;;;46.28;25.85;;;;;;;10.09;67.35;99031.06;5050529;28;20074;-75
2022/05/08 02:20:09;;;;;;;37.83;25.38;;;;;;;10.05;67.62;99030.78;5050263;28;20044;-75
2022/05/08 02:22:36;;;;;;;37.03;24.00;;;;;;;10.03;67.81;99032.16;5049479;28;20343;-76
2022/05/08 02:25:03;;;;;;;34.40;22.92;;;;;;;9.98;67.10;99033.03;5049661;28;20059;-75
2022/05/08 02:27:40;;;;;;;32.05;21.77;;;;;;;9.95;67.60;99028.09;5049952;28;20045;-75
2022/05/08 02:30:10;;;;;;;37.45;24.35;;;;;;;9.93;68.03;99033.03;5049868;28;21584;-75
2022/05/08 02:32:37;;;;;;;46.72;30.63;;;;;;;9.92;68.18;99034.13;5049417;28;20017;-75
2022/05/08 02:35:03;;;;;;;53.60;31.52;;;;;;;9.91;68.55;99036.03;5048648;28;20017;-76
2022/05/08 02:37:29;;;;;;;52.88;32.88;;;;;;;9.91;67.85;99030.53;5049742;28;20059;-75
2022/05/08 02:39:55;;;;;;;53.58;33.67;;;;;;;9.90;68.64;99031.66;5050147;28;20057;-75
2022/05/08 02:42:20;;;;;;;51.30;33.72;;;;;;;9.88;68.57;99038.50;5048958;28;20071;-74
2022/05/08 02:44:45;;;;;;;57.08;35.50;;;;;;;9.87;68.73;99042.34;5049356;28;20021;-74
2022/05/08 02:47:11;;;;;;;52.47;32.95;;;;;;;9.86;68.91;99032.50;5049510;28;20021;-74
2022/05/08 02:49:36;;;;;;;54.47;34.53;;;;;;;9.85;68.96;99048.09;5047230;28;20444;-74
2022/05/08 02:52:02;;;;;;;52.75;32.97;;;;;;;9.83;69.04;99048.38;5051401;28;20025;-74
2022/05/08 02:54:27;;;;;;;58.30;34.75;;;;;;;9.81;68.70;99036.03;5050723;28;20051;-74
2022/05/08 02:59:37;;;;;;;55.78;34.30;;;;;;;9.83;69.12;99042.91;5051098;28;20074;-74
2022/05/08 03:02:02;;;;;;;60.83;36.38;;;;;;;9.85;69.02;99039.88;5050892;28;20029;-74
2022/05/08 03:04:28;;;;;;;53.72;35.58;;;;;;;9.86;68.93;99047.00;5048929;28;20054;-74
2022/05/08 03:06:53;;;;;;;57.70;35.35;;;;;;;9.87;69.34;99048.63;5050631;28;20078;-74
2022/05/08 03:09:19;;;;;;;54.40;35.53;;;;;;;9.88;69.81;99046.72;5047881;28;20029;-74
2022/05/08 03:11:45;;;;;;;58.67;36.47;;;;;;;9.89;69.19;99051.13;5050416;28;20060;-75
2022/05/08 03:14:10;;;;;;;64.18;39.35;;;;;;;9.90;69.34;99047.28;5050446;28;20140;-74
2022/05/08 03:16:35;;;;;;;72.57;44.05;;;;;;;9.90;69.87;99050.81;5050173;28;20386;-74
2022/05/08 03:19:01;;;;;;;62.25;39.63;;;;;;;9.91;68.95;99052.47;5047223;28;20029;-75
2022/05/08 03:21:28;;;;;;;61.33;37.85;;;;;;;9.90;69.50;99048.09;5049617;28;20029;-74
2022/05/08 03:23:53;;;;;;;64.82;39.53;;;;;;;9.91;69.74;99059.88;5049070;28;20021;-74
2022/05/08 03:26:22;;;;;;;78.30;46.78;;;;;;;9.92;69.73;99061.53;5050152;28;20090;-74
2022/05/08 03:28:48;;;;;;;70.97;41.53;;;;;;;9.93;69.53;99060.44;5049211;28;20032;-74
2022/05/08 03:31:14;;;;;;;68.32;40.42;;;;;;;9.92;69.52;99070.56;5048940;28;20359;-74
2022/05/08 03:33:40;;;;;;;65.97;39.83;;;;;;;9.94;70.10;99067.56;5048961;28;20056;-74
2022/05/08 03:36:07;;;;;;;68.43;40.58;;;;;;;9.92;69.18;99062.34;5052063;28;20041;-74
2022/05/08 03:38:33;;;;;;;68.45;42.45;;;;;;;9.91;69.52;99060.69;5048201;28;20025;-74
2022/05/08 03:40:59;;;;;;;71.15;42.85;;;;;;;9.91;70.20;99068.91;5050060;28;20020;-75
2022/05/08 03:43:25;;;;;;;69.55;42.63;;;;;;;9.92;70.02;99061.53;5048456;28;20474;-74
2022/05/08 03:45:50;;;;;;;66.97;41.70;;;;;;;9.94;69.98;99060.13;5049433;28;20041;-74
2022/05/08 03:48:17;;;;;;;66.72;41.53;;;;;;;9.92;69.75;99062.34;5047985;28;20033;-75
2022/05/08 03:50:43;;;;;;;65.85;40.47;;;;;;;9.93;69.46;99069.44;5047523;28;20028;-74
2022/05/08 03:53:09;;;;;;;64.28;40.30;;;;;;;9.94;69.91;99071.09;5051751;28;20051;-75
2022/05/08 03:55:34;;;;;;;65.50;40.50;;;;;;;9.96;70.60;99076.31;5051269;28;20469;-75
2022/05/08 03:58:00;;;;;;;62.78;40.22;;;;;;;9.96;69.87;99076.31;5051629;28;20395;-75
2022/05/08 04:00:26;;;;;;;66.78;40.50;;;;;;;9.98;70.22;99082.34;5050449;28;20163;-75
2022/05/08 04:02:52;;;;;;;68.20;39.90;;;;;;;10.04;69.96;99083.94;5050052;28;20025;-74
2022/05/08 04:05:17;;;;;;;62.88;39.65;;;;;;;10.12;70.29;99082.59;5051055;28;20029;-74
2022/05/08 04:07:43;;;;;;;60.67;38.03;;;;;;;10.21;70.12;99085.56;5050360;28;20036;-75
2022/05/08 04:10:09;;;;;;;63.58;38.30;;;;;;;10.30;69.98;99083.06;5050510;28;20087;-75
2022/05/08 04:12:35;;;;;;;61.35;37.80;;;;;;;10.38;70.55;99083.34;5049965;28;20032;-74
2022/05/08 04:15:00;;;;;;;59.10;36.72;;;;;;;10.48;70.52;99082.50;5050361;28;20028;-74
2022/05/08 04:17:29;;;;;;;56.33;36.25;;;;;;;10.60;70.10;99084.91;5050409;28;20032;-74
2022/05/08 04:19:55;;;;;;;57.97;37.00;;;;;;;10.74;70.40;99089.78;5050693;28;20044;-75
2022/05/08 04:25:07;;;;;;;54.33;33.83;;;;;;;11.02;70.84;99080.84;5050488;28;20075;-74
2022/05/08 04:27:35;;;;;;;51.97;33.38;;;;;;;11.17;70.59;99079.94;5050515;28;20029;-75
2022/05/08 04:30:01;;;;;;;48.47;31.38;;;;;;;11.32;70.27;99089.97;5050350;28;20465;-75
2022/05/08 04:32:27;;;;;;;51.65;32.20;;;;;;;11.46;70.72;99089.34;5049931;28;20025;-75
2022/05/08 04:34:52;;;;;;;52.17;33.13;;;;;;;11.59;70.79;99085.94;5050179;28;20051;-75
2022/05/08 04:37:17;;;;;;;50.42;32.13;;;;;;;11.75;71.05;99085.78;5049186;28;20032;-75
2022/05/08 04:39:43;;;;;;;50.17;31.90;;;;;;;11.91;70.72;99089.22;5050353;28;20024;-75
2022/05/08 04:42:08;;;;;;;48.50;30.50;;;;;;;12.03;70.08;99089.69;5048802;28;20021;-75
2022/05/08 04:44:34;;;;;;;50.33;33.17;;;;;;;12.12;70.40;99087.13;5053672;28;20671;-75
2022/05/08 04:46:59;;;;;;;51.03;31.35;;;;;;;12.20;69.88;99091.97;5053817;28;20158;-75
2022/05/08 04:49:25;;;;;;;47.35;31.10;;;;;;;12.28;69.90;99095.22;5054209;28;20453;-75
2022/05/08 04:51:50;;;;;;;45.58;30.27;;;;;;;12.34;70.12;99088.53;5053923;28;20048;-74
2022/05/08 04:54:15;;;;;;;44.00;29.17;;;;;;;12.42;69.79;99092.56;5054107;28;20603;-74
2022/05/08 04:56:41;;;;;;;45.60;29.52;;;;;;;12.49;69.86;99093.03;5054179;28;20025;-74
2022/05/08 04:59:06;;;;;;;45.08;31.85;;;;;;;12.56;69.79;99085.25;5053709;28;20017;-75
2022/05/08 05:01:32;;;;;;;45.97;30.88;;;;;;;12.69;69.94;99097.47;5055644;28;20470;-74
2022/05/08 05:03:57;;;;;;;46.08;30.52;;;;;;;12.79;69.77;99091.84;5053986;28;20027;-74
2022/05/08 05:06:23;;;;;;;43.70;30.70;;;;;;;12.89;69.54;99095.56;5054773;28;20393;-74
2022/05/08 05:08:48;;;;;;;44.63;30.98;;;;;;;12.98;69.46;99099.28;5054214;28;20384;-75
2022/05/08 05:11:13;;;;;;;42.30;31.25;;;;;;;13.01;69.18;99101.47;5052773;28;20055;-75
2022/05/08 05:13:39;;;;;;;44.35;29.48;;;;;;;13.07;69.08;99102.19;5053020;28;20446;-75
2022/05/08 05:16:05;;;;;;;42.47;29.60;;;;;;;13.12;68.92;99099.38;5052019;28;20536;-74
2022/05/08 05:18:31;;;;;;;38.25;27.00;;;;;;;13.20;68.90;99108.91;5052682;28;20047;-75
2022/05/08 05:20:56;;;;;;;44.33;30.20;;;;;;;13.25;68.30;99103.31;5052516;28;20024;-74
2022/05/08 05:23:22;;;;;;;41.80;28.00;;;;;;;13.30;68.42;99108.75;5052710;28;20037;-74
2022/05/08 05:25:49;;;;;;;41.45;29.50;;;;;;;13.34;68.53;99109.78;5053077;28;20029;-75
2022/05/08 05:28:14;;;;;;;43.13;28.55;;;;;;;13.36;68.20;99109.50;5053312;28;20102;-74
2022/05/08 05:30:40;;;;;;;41.60;26.90;;;;;;;13.38;67.83;99101.75;5053772;28;20029;-74
2022/05/08 05:33:07;;;;;;;40.63;28.42;;;;;;;13.39;67.81;99108.91;5053505;28;20493;-75
2022/05/08 05:35:35;;;;;;;46.45;31.58;;;;;;;13.36;67.69;99113.06;5057410;28;20113;-75
2022/05/08 05:38:01;;;;;;;43.35;28.38;;;;;;;13.31;67.32;99118.66;5052537;28;20416;-74
2022/05/08 05:40:26;;;;;;;39.78;26.90;;;;;;;13.24;66.92;99113.53;5053040;28;20099;-74
2022/05/08 05:42:52;;;;;;;39.03;25.08;;;;;;;13.18;66.85;99111.16;5052989;28;20017;-75
2022/05/08 05:45:17;;;;;;;34.47;24.70;;;;;;;13.14;66.94;99110.91;5056833;28;20715;-75
2022/05/08 05:47:55;;;;;;;35.72;24.58;;;;;;;13.16;67.01;99116.13;5050602;28;20035;-75
2022/05/08 05:50:25;;;;;;;34.65;25.15;;;;;;;13.19;67.10;99118.31;5052432;28;20033;-75
2022/05/08 05:52:52;;;;;;;36.67;24.48;;;;;;;13.25;67.33;99123.44;5051466;28;20079;-75
2022/05/08 05:55:18;;;;;;;32.97;22.27;;;;;;;13.30;67.05;99122.53;5049402;28;20029;-75
2022/05/08 05:57:44;;;;;;;31.83;22.95;;;;;;;13.35;67.00;99122.44;5051456;28;20470;-75
2022/05/08 06:00:12;;;;;;;31.17;23.33;;;;;;;13.39;66.69;99122.69;5052009;28;20068;-75
2022/05/08 06:02:40;;;;;;;32.05;22.90;;;;;;;13.42;65.97;99126.81;5053214;28;20021;-75
2022/05/08 06:05:07;;;;;;;34.72;23.45;;;;;;;13.42;66.14;99113.84;5052598;28;20049;-75
2022/05/08 06:07:33;;;;;;;32.25;20.90;;;;;;;13.47;65.59;99118.47;5052878;28;20025;-74
2022/05/08 06:09:59;;;;;;;32.50;21.95;;;;;;;13.53;66.04;99118.06;5052392;28;20029;-75
2022/05/08 06:12:25;;;;;;;32.53;21.42;;;;;;;13.65;65.97;99122.31;5051429;28;20047;-73
2022/05/08 06:14:50;;;;;;;30.02;20.67;;;;;;;13.74;65.83;99123.28;5054313;28;20429;-73
2022/05/08 06:17:15;;;;;;;24.00;17.25;;;;;;;13.83;65.57;99123.38;5052612;28;20448;-73
2022/05/08 06:19:41;;;;;;;28.10;18.65;;;;;;;13.93;65.37;99122.38;5051336;28;20031;-73
2022/05/08 06:22:06;;;;;;;25.17;18.17;;;;;;;14.04;65.17;99128.56;5055434;28;20488;-76
2022/05/08 06:24:34;;;;;;;25.52;17.83;;;;;;;14.13;64.65;99123.97;5052279;28;20029;-75
2022/05/08 06:26:59;;;;;;;24.70;17.90;;;;;;;14.24;64.83;99119.09;5052764;28;20079;-74
2022/05/08 06:29:25;;;;;;;26.70;17.63;;;;;;;14.36;64.74;99118.59;5054700;28;20041;-74
2022/05/08 06:31:51;;;;;;;23.67;16.60;;;;;;;14.45;64.43;99119.53;5052284;28;20040;-73
2022/05/08 06:34:20;;;;;;;18.60;13.40;;;;;;;14.55;63.59;99118.50;5054130;28;20021;-73
2022/05/08 06:36:46;;;;;;;28.08;17.85;;;;;;;14.65;63.92;99121.06;5055739;28;20047;-73
2022/05/08 06:39:13;;;;;;;27.67;19.60;;;;;;;14.78;63.60;99119.44;5052220;28;20028;-74
2022/05/08 06:41:38;;;;;;;27.95;20.08;;;;;;;14.88;63.68;99127.50;5052862;28;20032;-74
2022/05/08 06:44:04;;;;;;;27.17;19.98;;;;;;;14.96;63.25;99117.69;5055500;28;20401;-74
2022/05/08 06:46:34;;;;;;;25.88;18.25;;;;;;;15.06;63.08;99116.63;5051937;28;20056;-77
2022/05/08 06:49:00;;;;;;;27.45;17.92;;;;;;;15.16;63.01;99121.94;5054967;28;20408;-73
2022/05/08 06:51:26;;;;;;;18.30;14.02;;;;;;;15.25;62.59;99118.44;5054735;28;20024;-72
2022/05/08 06:53:52;;;;;;;18.17;12.43;;;;;;;15.32;62.38;99118.81;5051367;28;20442;-73
2022/05/08 06:56:17;;;;;;;19.40;13.07;;;;;;;15.40;61.95;99120.03;5052072;28;20099;-71
2022/05/08 07:01:41;;;;;;;18.77;12.30;;;;;;;15.59;60.85;99117.09;5052152;28;20143;-72
2022/05/08 07:04:07;;;;;;;;;;;;;;;15.70;61.26;99117.66;5052179;28;20082;-72
2022/05/08 07:06:37;;;;;;;22.20;13.88;;;;;;;15.80;60.97;99114.66;5054375;28;19916;-72
2022/05/08 07:09:03;;;;;;;22.70;14.77;;;;;;;15.90;60.85;99121.91;5050668;28;20029;-73
2022/05/08 07:11:30;;;;;;;20.17;14.00;;;;;;;16.01;60.92;99123.28;5051597;28;20258;-73
2022/05/08 07:14:01;;;;;;;21.08;14.82;;;;;;;16.09;60.18;99124.44;5051251;28;20416;-72
2022/05/08 07:16:27;;;;;;;21.90;14.90;;;;;;;16.17;60.00;99120.91;5051423;28;20024;-70
2022/05/08 07:18:53;;;;;;;21.95;14.82;;;;;;;16.23;59.91;99121.59;5051568;28;20522;-72
2022/05/08 07:21:19;;;;;;;22.38;15.43;;;;;;;16.29;59.63;99117.56;5051397;28;20025;-71
2022/05/08 07:23:45;;;;;;;22.48;14.77;;;;;;;16.35;59.52;99119.06;5050984;28;20017;-71
2022/05/08 07:26:11;;;;;;;20.75;15.15;;;;;;;16.45;59.55;99122.69;5051685;28;20033;-71
2022/05/08 07:28:37;;;;;;;19.55;14.25;;;;;;;16.54;59.52;99123.50;5051300;28;20385;-71
2022/05/08 07:31:03;;;;;;;18.83;12.88;;;;;;;16.60;59.32;99125.00;5046554;28;20029;-70
2022/05/08 07:33:34;;;;;;;18.83;13.15;;;;;;;16.67;58.47;99128.13;5051024;28;20052;-72
2022/05/08 07:36:15;;;;;;;19.23;13.00;;;;;;;16.73;58.46;99128.00;5051396;28;20027;-73
2022/05/08 07:38:46;;;;;;;18.33;12.82;;;;;;;16.79;58.46;99130.28;5050976;28;20029;-74
2022/05/08 07:41:16;;;;;;;18.45;12.88;;;;;;;16.86;58.33;99135.38;5051152;28;20039;-73
2022/05/08 07:43:45;;;;;;;20.63;12.48;;;;;;;16.92;57.90;99128.50;5051041;28;20532;-74
2022/05/08 07:46:11;;;;;;;16.50;11.65;;;;;;;17.01;57.66;99127.75;5049812;28;20060;-74
2022/05/08 07:48:37;;;;;;;19.15;12.60;;;;;;;17.13;57.77;99133.50;5051114;28;20031;-74
2022/05/08 07:51:03;;;;;;;18.55;12.13;;;;;;;17.19;56.96;99134.97;5050304;28;20029;-74
2022/05/08 07:53:30;;;;;;;19.42;12.85;;;;;;;17.18;55.63;99141.66;5047675;28;20064;-73
2022/05/08 07:55:55;;;;;;;17.85;12.32;;;;;;;17.17;55.64;99131.72;5050397;28;20025;-73
2022/05/08 07:58:21;;;;;;;18.55;11.55;;;;;;;17.22;55.31;99134.31;5050107;28;20052;-73
2022/05/08 08:00:49;;;;;;;16.58;11.88;;;;;;;17.30;55.43;99132.69;5050890;28;20040;-73
2022/05/08 08:03:16;;;;;;;20.05;13.43;;;;;;;17.35;54.75;99137.25;5052520;28;20029;-73
2022/05/08 08:05:43;;;;;;;19.30;13.02;;;;;;;17.37;55.15;99135.81;5050860;28;20090;-74
2022/05/08 08:08:08;;;;;;;18.58;11.90;;;;;;;17.40;54.47;99140.69;5050939;28;20028;-74
2022/05/08 08:10:34;;;;;;;17.52;12.25;;;;;;;17.43;54.10;99138.41;5050774;28;20029;-73
2022/05/08 08:12:59;;;;;;;15.68;11.80;;;;;;;17.46;54.54;99133.03;5050501;28;20531;-74
2022/05/08 08:15:25;;;;;;;17.50;12.35;;;;;;;17.55;54.05;99141.34;5050724;28;20119;-73
2022/05/08 08:17:50;;;;;;;18.15;13.70;;;;;;;17.62;54.13;99147.22;5050145;28;20036;-73
2022/05/08 08:20:16;;;;;;;19.08;13.52;;;;;;;17.65;53.65;99145.75;5050541;28;20021;-73
2022/05/08 08:22:41;;;;;;;20.05;13.50;;;;;;;17.71;53.82;99145.25;5052068;28;20381;-73
2022/05/08 08:25:07;;;;;;;16.60;12.43;;;;;;;17.74;53.01;99140.19;5050554;28;20056;-73
2022/05/08 08:27:32;;;;;;;17.67;11.10;;;;;;;17.79;53.08;99142.81;5053003;28;20033;-73
2022/05/08 08:29:59;;;;;;;19.30;11.60;;;;;;;17.84;53.25;99142.66;5050689;28;20108;-73
2022/05/08 08:32:26;;;;;;;12.52;9.55;;;;;;;17.94;53.46;99142.28;5048689;28;20025;-74
2022/05/08 08:34:53;;;;;;;15.52;10.63;;;;;;;18.05;52.57;99134.50;5050855;28;20068;-74
2022/05/08 08:37:18;;;;;;;15.30;10.50;;;;;;;18.14;52.86;99145.56;5050184;28;20033;-73
2022/05/08 08:39:44;;;;;;;12.00;9.13;;;;;;;18.23;52.95;99138.03;5051340;28;20037;-73
2022/05/08 08:42:21;;;;;;;13.38;8.85;;;;;;;18.36;53.00;99138.13;5050903;28;20033;-72
2022/05/08 08:47:45;;;;;;;13.55;9.98;;;;;;;18.69;52.45;99137.53;5050305;28;20036;-73
2022/05/08 08:50:12;;;;;;;13.02;9.38;;;;;;;18.86;52.46;99144.97;5052082;28;20116;-72
2022/05/08 08:52:37;;;;;;;13.85;8.63;;;;;;;18.97;52.27;99140.66;5050651;28;20033;-73
2022/05/08 08:55:07;;;;;;;13.25;9.10;;;;;;;18.98;50.38;99144.28;5050441;28;20496;-72
2022/05/08 08:57:32;;;;;;;12.45;10.20;;;;;;;18.93;49.85;99141.66;5050925;28;20497;-73
2022/05/08 08:59:57;;;;;;;14.63;10.30;;;;;;;18.87;48.94;99141.84;5049775;28;20025;-73
2022/05/08 09:02:23;;;;;;;13.63;8.93;;;;;;;18.92;48.94;99145.59;5049927;28;20104;-73
2022/05/08 09:04:49;;;;;;;13.02;9.73;;;;;;;18.97;48.23;99142.66;5050227;28;20370;-73
2022/05/08 09:07:33;;;;;;;14.82;10.02;;;;;;;19.05;47.10;99147.34;5052838;28;20036;-73
2022/05/08 09:10:07;;;;;;;12.13;9.88;;;;;;;19.17;48.42;99155.75;5052469;28;20513;-72
2022/05/08 09:12:33;;;;;;;11.82;8.63;;;;;;;19.24;47.49;99146.91;5055711;28;20029;-72
2022/05/08 09:14:59;;;;;;;11.60;8.05;;;;;;;19.30;47.23;99151.09;5049438;28;20485;-72
2022/05/08 09:17:41;;;;;;;11.90;8.07;;;;;;;19.33;47.02;99144.88;5048396;28;20443;-73
2022/05/08 09:20:22;;;;;;;10.32;7.60;;;;;;;19.43;47.09;99140.03;5053396;28;20025;-73
2022/05/08 09:23:16;;;;;;;10.18;8.00;;;;;;;19.51;46.22;99133.59;5054220;28;20108;-72
2022/05/08 09:26:00;;;;;;;10.07;6.80;;;;;;;19.63;47.04;99139.22;5058851;28;20028;-72
2022/05/08 09:28:28;;;;;;;10.43;7.22;;;;;;;19.86;47.60;99135.28;5049315;28;20105;-73
2022/05/08 09:31:10;;;;;;;10.45;8.05;;;;;;;20.10;47.01;99139.31;5051776;28;20021;-73
2022/05/08 09:33:41;;;;;;;9.60;7.07;;;;;;;20.22;46.67;99133.78;5051634;28;20102;-72
2022/05/08 09:36:18;;;;;;;14.30;7.97;;;;;;;20.33;46.87;99134.16;5052931;28;20044;-72
2022/05/08 09:38:49;;;;;;;10.88;7.63;;;;;;;20.47;46.18;99134.63;5058761;28;20027;-73
2022/05/08 09:41:39;;;;;;;11.35;7.20;;;;;;;20.63;46.53;99133.94;5049836;28;20067;-74
2022/05/08 09:44:11;;;;;;;10.98;8.20;;;;;;;20.77;46.20;99128.88;5053623;28;20033;-74
2022/05/08 09:46:48;;;;;;;10.80;7.15;;;;;;;20.79;45.86;99134.91;5055310;28;20055;-74
2022/05/08 09:49:18;;;;;;;10.93;7.13;;;;;;;20.87;45.77;99132.38;5052596;28;20060;-74
2022/05/08 09:51:44;;;;;;;;;;;;;;;20.87;45.33;99127.59;5054149;28;20525;-74
2022/05/08 09:54:11;;;;;;;10.98;6.70;;;;;;;20.84;43.69;99122.72;5056246;28;20365;-75
2022/05/08 09:56:36;;;;;;;10.43;6.97;;;;;;;20.85;45.13;99123.53;5054870;28;20032;-74
2022/05/08 09:59:06;;;;;;;6.95;5.63;;;;;;;20.96;45.43;99131.06;5052531;28;20167;-74
2022/05/08 10:01:31;;;;;;;;;;;;;;;21.00;43.85;99127.59;5054721;28;20067;-74
2022/05/08 10:03:58;;;;;;;8.32;5.45;;;;;;;20.88;42.86;99125.63;5055542;28;19970;-75
2022/05/08 10:06:24;;;;;;;7.13;5.60;;;;;;;20.78;42.39;99126.91;5052309;28;20067;-74
2022/05/08 10:08:51;;;;;;;7.57;6.05;;;;;;;20.74;43.20;99123.16;5053152;28;20029;-74
2022/05/08 10:14:07;;;;;;;6.13;5.35;;;;;;;20.85;42.68;99117.97;5050950;28;20048;-75
2022/05/08 10:17:02;;;;;;;5.53;4.75;;;;;;;20.91;43.01;99105.41;5052331;28;20082;-74
2022/05/08 10:19:27;;;;;;;5.47;4.68;;;;;;;21.01;42.77;99110.50;5054765;28;20087;-74
2022/05/08 10:21:53;;;;;;;5.57;4.78;;;;;;;21.08;42.34;99101.56;5054784;28;20020;-73
2022/05/08 10:24:28;;;;;;;5.78;4.78;;;;;;;21.12;41.85;99106.06;5053095;28;20099;-73
2022/05/08 10:27:14;;;;;;;6.97;5.53;;;;;;;21.11;39.92;99098.88;5051657;28;20028;-73
2022/05/08 10:30:01;;;;;;;6.47;5.25;;;;;;;21.08;39.77;99098.75;5051981;28;20017;-74
2022/05/08 10:35:25;;;;;;;7.28;5.63;;;;;;;21.17;39.25;99093.88;5049850;28;20036;-73
2022/05/08 10:37:59;;;;;;;6.72;5.28;;;;;;;21.28;40.45;99088.59;5054849;28;20033;-73
2022/05/08 10:40:28;;;;;;;6.45;5.10;;;;;;;21.39;40.46;99089.75;5051493;28;20025;-73
2022/05/08 10:43:12;;;;;;;7.00;4.95;;;;;;;21.55;38.91;99087.00;5048130;28;20021;-72
2022/05/08 10:45:41;;;;;;;6.45;5.20;;;;;;;21.74;39.18;99091.13;5053891;28;20524;-72
2022/05/08 10:48:07;;;;;;;9.23;5.20;;;;;;;21.95;39.42;99093.69;5053391;28;20359;-73
2022/05/08 10:50:54;;;;;;;6.10;4.95;;;;;;;22.12;37.16;99088.97;5052762;28;20032;-74
2022/05/08 10:53:23;;;;;;;6.35;5.45;;;;;;;22.06;37.30;99085.59;5050459;28;20040;-75
2022/05/08 10:55:49;;;;;;;7.22;5.20;;;;;;;22.08;37.88;99080.47;5051764;28;20036;-74
2022/05/08 10:58:16;;;;;;;6.93;5.43;;;;;;;22.17;38.72;99088.69;5051020;28;20056;-73
2022/05/08 11:00:41;;;;;;;8.93;5.63;;;;;;;22.20;37.80;99081.56;5051443;28;20021;-74
2022/05/08 11:03:07;;;;;;;8.10;6.03;;;;;;;22.08;36.69;99080.47;5051182;28;20024;-73
2022/05/08 11:05:37;;;;;;;7.80;6.10;;;;;;;21.92;37.61;99074.88;5046027;28;20040;-73
2022/05/08 11:08:04;;;;;;;7.40;6.32;;;;;;;21.85;37.97;99072.69;5051460;28;20028;-73
2022/05/08 11:10:34;;;;;;;12.10;8.15;;;;;;;21.79;38.55;99073.34;5053846;28;20405;-74
2022/05/08 11:13:05;;;;;;;9.38;7.95;;;;;;;21.71;39.03;99070.34;5049027;28;20033;-72
2022/05/08 11:15:35;;;;;;;9.57;7.90;;;;;;;21.64;39.10;99067.34;5048124;28;20167;-73
2022/05/08 11:18:09;;;;;;;9.60;7.97;;;;;;;21.58;39.14;99073.50;5049375;28;20049;-73
2022/05/08 11:20:36;;;;;;;11.60;8.90;;;;;;;21.62;39.07;99069.69;5048694;28;20497;-73
2022/05/08 11:23:06;;;;;;;11.00;7.68;;;;;;;21.80;39.31;99070.16;5046819;28;20552;-73
2022/05/08 11:25:33;;;;;;;10.88;7.63;;;;;;;21.94;38.70;99069.75;5050922;28;20029;-73
2022/05/08 11:27:59;;;;;;;9.43;7.65;;;;;;;22.02;38.49;99065.16;5045994;28;20382;-73
2022/05/08 11:30:29;;;;;;;9.60;7.55;;;;;;;22.09;37.67;99061.75;5044429;28;20042;-74
2022/05/08 11:38:45;;;;;;;11.57;7.78;;;;;;;22.42;37.22;99049.41;5048577;28;20043;-73
2022/05/08 11:41:13;;;;;;;10.52;7.80;;;;;;;22.57;37.61;99051.41;5045419;28;20028;-75
2022/05/08 11:43:42;;;;;;;10.68;7.90;;;;;;;22.79;36.75;99043.50;5079654;28;20087;-75
2022/05/08 11:46:08;;;;;;;11.75;9.32;;;;;;;22.93;35.77;99053.41;5054755;28;20036;-75